sensor_id;sensor_type;location;lat;lon;timestamp;P1;durP1;ratioP1;P2;durP2;ratioP2
34234;SDS011;20500;49.856;20.290;2023-03-01T00:06:08;64.90;;;38.30;;
34234;SDS011;20500;49.856;20.290;2023-03-01T00:09:15;67.30;;;39.90;;
34234;SDS011;20500;49.856;20.290;2023-03-01T00:12:22;62.50;;;38.70;;
34234;SDS011;20500;49.856;20.290;2023-03-01T00:15:28;72.30;;;43.70;;
34234;SDS011;20500;49.856;20.290;2023-03-01T00:21:39;68.70;;;42.70;;
34234;SDS011;20500;49.856;20.290;2023-03-01T00:24:46;68.70;;;45.30;;
34234;SDS011;20500;49.856;20.290;2023-03-01T00:27:53;67.70;;;40.70;;
34234;SDS011;20500;49.856;20.290;2023-03-01T00:31:03;66.30;;;39.90;;
34234;SDS011;20500;49.856;20.290;2023-03-01T00:34:10;63.80;;;39.80;;
34234;SDS011;20500;49.856;20.290;2023-03-01T00:37:17;63.10;;;39.20;;
34234;SDS011;20500;49.856;20.290;2023-03-01T00:40:23;57.50;;;38.30;;
34234;SDS011;20500;49.856;20.290;2023-03-01T00:46:39;62.20;;;35.60;;
34234;SDS011;20500;49.856;20.290;2023-03-01T00:52:53;61.80;;;37.40;;
34234;SDS011;20500;49.856;20.290;2023-03-01T00:56:00;65.30;;;41.30;;
34234;SDS011;20500;49.856;20.290;2023-03-01T00:59:07;65.80;;;42.10;;
34234;SDS011;20500;49.856;20.290;2023-03-01T01:02:13;65.60;;;42.40;;
34234;SDS011;20500;49.856;20.290;2023-03-01T01:08:24;65.50;;;40.30;;
34234;SDS011;20500;49.856;20.290;2023-03-01T01:11:31;66.10;;;41.50;;
34234;SDS011;20500;49.856;20.290;2023-03-01T01:14:39;71.00;;;41.00;;
34234;SDS011;20500;49.856;20.290;2023-03-01T01:17:45;76.30;;;45.10;;
34234;SDS011;20500;49.856;20.290;2023-03-01T01:20:52;74.10;;;44.50;;
34234;SDS011;20500;49.856;20.290;2023-03-01T01:27:03;69.60;;;43.00;;
34234;SDS011;20500;49.856;20.290;2023-03-01T01:30:11;66.60;;;41.30;;
34234;SDS011;20500;49.856;20.290;2023-03-01T01:33:18;69.90;;;43.10;;
34234;SDS011;20500;49.856;20.290;2023-03-01T01:39:29;68.30;;;40.30;;
34234;SDS011;20500;49.856;20.290;2023-03-01T01:45:40;65.50;;;40.60;;
34234;SDS011;20500;49.856;20.290;2023-03-01T01:48:49;65.70;;;40.10;;
34234;SDS011;20500;49.856;20.290;2023-03-01T01:51:59;69.10;;;39.90;;
34234;SDS011;20500;49.856;20.290;2023-03-01T01:55:10;59.70;;;37.60;;
34234;SDS011;20500;49.856;20.290;2023-03-01T01:58:20;64.00;;;39.50;;
34234;SDS011;20500;49.856;20.290;2023-03-01T02:01:28;64.40;;;38.60;;
34234;SDS011;20500;49.856;20.290;2023-03-01T02:04:34;72.00;;;42.00;;
34234;SDS011;20500;49.856;20.290;2023-03-01T02:07:41;63.90;;;38.20;;
34234;SDS011;20500;49.856;20.290;2023-03-01T02:10:49;69.30;;;40.30;;
34234;SDS011;20500;49.856;20.290;2023-03-01T02:13:57;65.60;;;41.30;;
34234;SDS011;20500;49.856;20.290;2023-03-01T02:17:03;66.20;;;41.10;;
34234;SDS011;20500;49.856;20.290;2023-03-01T02:23:19;66.50;;;40.50;;
34234;SDS011;20500;49.856;20.290;2023-03-01T02:26:27;65.20;;;39.20;;
34234;SDS011;20500;49.856;20.290;2023-03-01T02:29:39;70.00;;;41.40;;
34234;SDS011;20500;49.856;20.290;2023-03-01T02:32:46;68.00;;;41.10;;
34234;SDS011;20500;49.856;20.290;2023-03-01T02:35:55;67.30;;;42.20;;
34234;SDS011;20500;49.856;20.290;2023-03-01T02:39:05;72.00;;;42.50;;
34234;SDS011;20500;49.856;20.290;2023-03-01T02:42:20;70.30;;;44.80;;
34234;SDS011;20500;49.856;20.290;2023-03-01T02:45:30;75.60;;;46.70;;
34234;SDS011;20500;49.856;20.290;2023-03-01T02:48:43;73.80;;;46.60;;
34234;SDS011;20500;49.856;20.290;2023-03-01T02:55:25;79.10;;;44.90;;
34234;SDS011;20500;49.856;20.290;2023-03-01T02:58:31;74.50;;;44.50;;
34234;SDS011;20500;49.856;20.290;2023-03-01T03:01:43;72.60;;;43.30;;
34234;SDS011;20500;49.856;20.290;2023-03-01T03:04:50;65.30;;;42.10;;
34234;SDS011;20500;49.856;20.290;2023-03-01T03:07:56;66.40;;;41.50;;
34234;SDS011;20500;49.856;20.290;2023-03-01T03:11:04;68.00;;;41.60;;
34234;SDS011;20500;49.856;20.290;2023-03-01T03:14:11;61.30;;;38.60;;
34234;SDS011;20500;49.856;20.290;2023-03-01T03:17:18;62.50;;;39.70;;
34234;SDS011;20500;49.856;20.290;2023-03-01T03:20:27;66.20;;;39.50;;
34234;SDS011;20500;49.856;20.290;2023-03-01T03:23:34;62.50;;;38.40;;
34234;SDS011;20500;49.856;20.290;2023-03-01T03:26:41;61.00;;;38.90;;
34234;SDS011;20500;49.856;20.290;2023-03-01T03:29:47;62.30;;;39.60;;
34234;SDS011;20500;49.856;20.290;2023-03-01T03:32:54;64.80;;;39.00;;
34234;SDS011;20500;49.856;20.290;2023-03-01T03:36:02;63.40;;;40.00;;
34234;SDS011;20500;49.856;20.290;2023-03-01T03:39:09;63.90;;;40.20;;
34234;SDS011;20500;49.856;20.290;2023-03-01T03:42:15;64.20;;;39.70;;
34234;SDS011;20500;49.856;20.290;2023-03-01T03:45:22;68.40;;;40.40;;
34234;SDS011;20500;49.856;20.290;2023-03-01T03:48:28;63.30;;;37.40;;
34234;SDS011;20500;49.856;20.290;2023-03-01T03:54:39;64.90;;;36.50;;
34234;SDS011;20500;49.856;20.290;2023-03-01T03:57:46;62.00;;;37.90;;
34234;SDS011;20500;49.856;20.290;2023-03-01T04:00:55;58.30;;;36.00;;
34234;SDS011;20500;49.856;20.290;2023-03-01T04:04:02;61.30;;;38.10;;
34234;SDS011;20500;49.856;20.290;2023-03-01T04:07:10;61.00;;;37.90;;
34234;SDS011;20500;49.856;20.290;2023-03-01T04:13:22;60.60;;;35.90;;
34234;SDS011;20500;49.856;20.290;2023-03-01T04:16:28;54.90;;;36.50;;
34234;SDS011;20500;49.856;20.290;2023-03-01T04:19:35;57.20;;;35.60;;
34234;SDS011;20500;49.856;20.290;2023-03-01T04:25:46;58.30;;;35.50;;
34234;SDS011;20500;49.856;20.290;2023-03-01T04:28:57;59.60;;;37.60;;
34234;SDS011;20500;49.856;20.290;2023-03-01T04:35:08;59.20;;;34.80;;
34234;SDS011;20500;49.856;20.290;2023-03-01T04:38:15;61.20;;;36.90;;
34234;SDS011;20500;49.856;20.290;2023-03-01T04:41:22;57.10;;;35.80;;
34234;SDS011;20500;49.856;20.290;2023-03-01T04:44:29;59.70;;;37.00;;
34234;SDS011;20500;49.856;20.290;2023-03-01T04:47:35;60.50;;;36.80;;
34234;SDS011;20500;49.856;20.290;2023-03-01T04:53:46;58.40;;;34.30;;
34234;SDS011;20500;49.856;20.290;2023-03-01T04:56:53;58.30;;;33.50;;
34234;SDS011;20500;49.856;20.290;2023-03-01T04:59:59;56.10;;;34.60;;
34234;SDS011;20500;49.856;20.290;2023-03-01T05:03:23;58.00;;;34.60;;
34234;SDS011;20500;49.856;20.290;2023-03-01T05:06:29;60.80;;;35.60;;
34234;SDS011;20500;49.856;20.290;2023-03-01T05:12:41;57.00;;;34.90;;
34234;SDS011;20500;49.856;20.290;2023-03-01T05:18:53;55.20;;;32.50;;
34234;SDS011;20500;49.856;20.290;2023-03-01T05:21:59;56.50;;;34.30;;
34234;SDS011;20500;49.856;20.290;2023-03-01T05:25:07;57.00;;;33.80;;
34234;SDS011;20500;49.856;20.290;2023-03-01T05:28:13;57.10;;;34.20;;
34234;SDS011;20500;49.856;20.290;2023-03-01T05:31:19;55.10;;;33.00;;
34234;SDS011;20500;49.856;20.290;2023-03-01T05:37:31;57.20;;;33.80;;
34234;SDS011;20500;49.856;20.290;2023-03-01T05:40:38;51.50;;;32.30;;
34234;SDS011;20500;49.856;20.290;2023-03-01T05:43:46;55.10;;;32.00;;
34234;SDS011;20500;49.856;20.290;2023-03-01T05:46:52;56.20;;;34.70;;
34234;SDS011;20500;49.856;20.290;2023-03-01T05:49:59;56.70;;;33.90;;
34234;SDS011;20500;49.856;20.290;2023-03-01T05:53:06;60.60;;;36.10;;
34234;SDS011;20500;49.856;20.290;2023-03-01T05:56:14;61.50;;;35.40;;
34234;SDS011;20500;49.856;20.290;2023-03-01T06:02:25;62.40;;;36.00;;
34234;SDS011;20500;49.856;20.290;2023-03-01T06:05:32;60.90;;;36.50;;
34234;SDS011;20500;49.856;20.290;2023-03-01T06:08:38;60.20;;;35.90;;
34234;SDS011;20500;49.856;20.290;2023-03-01T06:11:44;62.80;;;37.50;;
34234;SDS011;20500;49.856;20.290;2023-03-01T06:17:55;61.10;;;35.80;;
34234;SDS011;20500;49.856;20.290;2023-03-01T06:21:02;67.50;;;40.50;;
34234;SDS011;20500;49.856;20.290;2023-03-01T06:24:10;61.50;;;38.10;;
34234;SDS011;20500;49.856;20.290;2023-03-01T06:30:21;75.50;;;45.90;;
34234;SDS011;20500;49.856;20.290;2023-03-01T06:33:29;73.40;;;45.10;;
34234;SDS011;20500;49.856;20.290;2023-03-01T06:39:40;68.30;;;42.20;;
34234;SDS011;20500;49.856;20.290;2023-03-01T06:45:53;65.40;;;37.30;;
34234;SDS011;20500;49.856;20.290;2023-03-01T06:48:59;60.30;;;38.50;;
34234;SDS011;20500;49.856;20.290;2023-03-01T06:52:07;62.60;;;39.40;;
34234;SDS011;20500;49.856;20.290;2023-03-01T06:58:18;56.00;;;34.80;;
34234;SDS011;20500;49.856;20.290;2023-03-01T07:04:29;56.00;;;35.00;;
34234;SDS011;20500;49.856;20.290;2023-03-01T07:10:39;49.90;;;29.20;;
34234;SDS011;20500;49.856;20.290;2023-03-01T07:13:46;52.80;;;32.60;;
34234;SDS011;20500;49.856;20.290;2023-03-01T07:19:57;54.00;;;33.50;;
34234;SDS011;20500;49.856;20.290;2023-03-01T07:23:03;51.90;;;33.80;;
34234;SDS011;20500;49.856;20.290;2023-03-01T07:26:11;51.50;;;31.90;;
34234;SDS011;20500;49.856;20.290;2023-03-01T07:29:17;52.40;;;32.80;;
34234;SDS011;20500;49.856;20.290;2023-03-01T07:32:24;52.40;;;32.50;;
34234;SDS011;20500;49.856;20.290;2023-03-01T07:35:30;52.90;;;32.10;;
34234;SDS011;20500;49.856;20.290;2023-03-01T07:41:41;47.90;;;30.00;;
34234;SDS011;20500;49.856;20.290;2023-03-01T07:47:52;49.70;;;30.30;;
34234;SDS011;20500;49.856;20.290;2023-03-01T07:50:59;48.70;;;32.10;;
34234;SDS011;20500;49.856;20.290;2023-03-01T07:54:06;53.40;;;32.10;;
34234;SDS011;20500;49.856;20.290;2023-03-01T07:57:13;54.50;;;33.50;;
34234;SDS011;20500;49.856;20.290;2023-03-01T08:03:24;53.10;;;32.20;;
34234;SDS011;20500;49.856;20.290;2023-03-01T08:09:35;50.80;;;31.70;;
34234;SDS011;20500;49.856;20.290;2023-03-01T08:12:42;50.20;;;31.70;;
34234;SDS011;20500;49.856;20.290;2023-03-01T08:18:53;46.40;;;28.50;;
34234;SDS011;20500;49.856;20.290;2023-03-01T08:22:03;44.20;;;29.70;;
34234;SDS011;20500;49.856;20.290;2023-03-01T08:28:14;41.80;;;25.50;;
34234;SDS011;20500;49.856;20.290;2023-03-01T08:31:22;38.40;;;24.70;;
34234;SDS011;20500;49.856;20.290;2023-03-01T08:34:29;41.80;;;26.30;;
34234;SDS011;20500;49.856;20.290;2023-03-01T08:37:38;37.70;;;23.30;;
34234;SDS011;20500;49.856;20.290;2023-03-01T08:43:49;32.00;;;22.30;;
34234;SDS011;20500;49.856;20.290;2023-03-01T08:46:55;33.30;;;22.30;;
34234;SDS011;20500;49.856;20.290;2023-03-01T08:50:03;35.80;;;21.70;;
34234;SDS011;20500;49.856;20.290;2023-03-01T08:53:10;32.20;;;19.80;;
34234;SDS011;20500;49.856;20.290;2023-03-01T08:56:17;33.20;;;21.00;;
34234;SDS011;20500;49.856;20.290;2023-03-01T08:59:24;31.90;;;19.80;;
34234;SDS011;20500;49.856;20.290;2023-03-01T09:02:32;29.90;;;19.00;;
34234;SDS011;20500;49.856;20.290;2023-03-01T09:05:39;28.90;;;16.80;;
34234;SDS011;20500;49.856;20.290;2023-03-01T09:11:50;28.80;;;17.30;;
34234;SDS011;20500;49.856;20.290;2023-03-01T09:14:57;26.60;;;16.50;;
34234;SDS011;20500;49.856;20.290;2023-03-01T09:21:08;28.10;;;17.70;;
34234;SDS011;20500;49.856;20.290;2023-03-01T09:24:16;27.30;;;17.20;;
34234;SDS011;20500;49.856;20.290;2023-03-01T09:27:23;28.90;;;17.10;;
34234;SDS011;20500;49.856;20.290;2023-03-01T09:33:34;34.20;;;21.40;;
34234;SDS011;20500;49.856;20.290;2023-03-01T09:36:41;39.70;;;23.90;;
34234;SDS011;20500;49.856;20.290;2023-03-01T09:42:54;31.00;;;16.10;;
34234;SDS011;20500;49.856;20.290;2023-03-01T09:46:06;25.10;;;15.10;;
34234;SDS011;20500;49.856;20.290;2023-03-01T09:49:17;38.40;;;25.20;;
34234;SDS011;20500;49.856;20.290;2023-03-01T09:52:26;32.60;;;20.80;;
34234;SDS011;20500;49.856;20.290;2023-03-01T09:55:42;25.00;;;16.00;;
34234;SDS011;20500;49.856;20.290;2023-03-01T09:58:54;25.50;;;16.40;;
34234;SDS011;20500;49.856;20.290;2023-03-01T10:02:04;28.80;;;17.20;;
34234;SDS011;20500;49.856;20.290;2023-03-01T10:05:40;26.40;;;15.70;;
34234;SDS011;20500;49.856;20.290;2023-03-01T10:08:52;24.40;;;15.00;;
34234;SDS011;20500;49.856;20.290;2023-03-01T10:12:02;36.10;;;23.80;;
34234;SDS011;20500;49.856;20.290;2023-03-01T10:15:14;33.00;;;18.00;;
34234;SDS011;20500;49.856;20.290;2023-03-01T10:18:24;24.40;;;15.80;;
34234;SDS011;20500;49.856;20.290;2023-03-01T10:21:36;25.60;;;16.30;;
34234;SDS011;20500;49.856;20.290;2023-03-01T10:24:49;33.80;;;23.70;;
34234;SDS011;20500;49.856;20.290;2023-03-01T10:27:59;28.70;;;19.70;;
34234;SDS011;20500;49.856;20.290;2023-03-01T10:31:15;26.50;;;15.60;;
34234;SDS011;20500;49.856;20.290;2023-03-01T10:34:28;35.50;;;22.90;;
34234;SDS011;20500;49.856;20.290;2023-03-01T10:37:36;37.60;;;25.00;;
34234;SDS011;20500;49.856;20.290;2023-03-01T10:41:04;24.00;;;16.40;;
34234;SDS011;20500;49.856;20.290;2023-03-01T10:44:11;23.80;;;15.10;;
34234;SDS011;20500;49.856;20.290;2023-03-01T10:47:42;25.90;;;16.50;;
34234;SDS011;20500;49.856;20.290;2023-03-01T10:50:49;25.00;;;15.90;;
34234;SDS011;20500;49.856;20.290;2023-03-01T10:54:15;24.90;;;16.10;;
34234;SDS011;20500;49.856;20.290;2023-03-01T10:57:29;24.10;;;15.50;;
34234;SDS011;20500;49.856;20.290;2023-03-01T11:00:50;24.60;;;15.50;;
34234;SDS011;20500;49.856;20.290;2023-03-01T11:04:09;21.20;;;13.90;;
34234;SDS011;20500;49.856;20.290;2023-03-01T11:07:18;21.60;;;13.40;;
34234;SDS011;20500;49.856;20.290;2023-03-01T11:10:25;23.30;;;14.20;;
34234;SDS011;20500;49.856;20.290;2023-03-01T11:13:32;22.00;;;14.70;;
34234;SDS011;20500;49.856;20.290;2023-03-01T11:16:41;25.90;;;17.00;;
34234;SDS011;20500;49.856;20.290;2023-03-01T11:20:01;27.60;;;19.60;;
34234;SDS011;20500;49.856;20.290;2023-03-01T11:23:11;35.60;;;24.00;;
34234;SDS011;20500;49.856;20.290;2023-03-01T11:26:19;34.30;;;24.10;;
34234;SDS011;20500;49.856;20.290;2023-03-01T11:29:27;34.70;;;23.80;;
34234;SDS011;20500;49.856;20.290;2023-03-01T11:32:53;29.60;;;20.20;;
34234;SDS011;20500;49.856;20.290;2023-03-01T11:36:08;38.90;;;27.60;;
34234;SDS011;20500;49.856;20.290;2023-03-01T11:39:25;48.90;;;35.60;;
34234;SDS011;20500;49.856;20.290;2023-03-01T11:42:40;35.80;;;25.30;;
34234;SDS011;20500;49.856;20.290;2023-03-01T11:45:56;28.00;;;19.20;;
34234;SDS011;20500;49.856;20.290;2023-03-01T11:49:32;27.70;;;18.50;;
34234;SDS011;20500;49.856;20.290;2023-03-01T11:52:57;28.30;;;19.80;;
34234;SDS011;20500;49.856;20.290;2023-03-01T11:56:16;29.30;;;19.60;;
34234;SDS011;20500;49.856;20.290;2023-03-01T11:59:41;26.50;;;18.00;;
34234;SDS011;20500;49.856;20.290;2023-03-01T12:03:16;27.50;;;18.50;;
34234;SDS011;20500;49.856;20.290;2023-03-01T12:06:39;27.20;;;18.60;;
34234;SDS011;20500;49.856;20.290;2023-03-01T12:10:09;25.40;;;18.00;;
34234;SDS011;20500;49.856;20.290;2023-03-01T12:13:27;26.10;;;17.60;;
34234;SDS011;20500;49.856;20.290;2023-03-01T12:17:09;27.60;;;19.10;;
34234;SDS011;20500;49.856;20.290;2023-03-01T12:20:29;27.50;;;18.30;;
34234;SDS011;20500;49.856;20.290;2023-03-01T12:23:45;29.20;;;17.10;;
34234;SDS011;20500;49.856;20.290;2023-03-01T12:31:29;22.40;;;14.70;;
34234;SDS011;20500;49.856;20.290;2023-03-01T12:38:21;23.40;;;14.70;;
34234;SDS011;20500;49.856;20.290;2023-03-01T12:41:48;23.30;;;14.40;;
34234;SDS011;20500;49.856;20.290;2023-03-01T12:45:16;22.70;;;15.10;;
34234;SDS011;20500;49.856;20.290;2023-03-01T12:48:46;23.70;;;15.00;;
34234;SDS011;20500;49.856;20.290;2023-03-01T12:52:02;22.70;;;15.10;;
34234;SDS011;20500;49.856;20.290;2023-03-01T12:55:18;22.90;;;15.10;;
34234;SDS011;20500;49.856;20.290;2023-03-01T12:58:32;21.40;;;14.40;;
34234;SDS011;20500;49.856;20.290;2023-03-01T13:01:53;24.50;;;15.40;;
34234;SDS011;20500;49.856;20.290;2023-03-01T13:05:17;22.80;;;14.70;;
34234;SDS011;20500;49.856;20.290;2023-03-01T13:08:35;26.40;;;17.90;;
34234;SDS011;20500;49.856;20.290;2023-03-01T13:11:44;27.80;;;18.90;;
34234;SDS011;20500;49.856;20.290;2023-03-01T13:17:58;25.40;;;16.60;;
34234;SDS011;20500;49.856;20.290;2023-03-01T13:21:06;35.10;;;23.20;;
34234;SDS011;20500;49.856;20.290;2023-03-01T13:24:25;320.10;;;215.50;;
34234;SDS011;20500;49.856;20.290;2023-03-01T13:27:33;71.70;;;49.00;;
34234;SDS011;20500;49.856;20.290;2023-03-01T13:30:40;37.90;;;23.80;;
34234;SDS011;20500;49.856;20.290;2023-03-01T13:33:47;37.10;;;25.00;;
34234;SDS011;20500;49.856;20.290;2023-03-01T13:36:54;27.90;;;18.50;;
34234;SDS011;20500;49.856;20.290;2023-03-01T13:43:55;29.00;;;18.70;;
34234;SDS011;20500;49.856;20.290;2023-03-01T13:47:03;27.90;;;18.20;;
34234;SDS011;20500;49.856;20.290;2023-03-01T13:50:21;27.20;;;17.70;;
34234;SDS011;20500;49.856;20.290;2023-03-01T13:53:30;26.30;;;16.70;;
34234;SDS011;20500;49.856;20.290;2023-03-01T13:56:40;24.80;;;16.50;;
34234;SDS011;20500;49.856;20.290;2023-03-01T13:59:48;20.90;;;13.80;;
34234;SDS011;20500;49.856;20.290;2023-03-01T14:06:08;22.70;;;15.10;;
34234;SDS011;20500;49.856;20.290;2023-03-01T14:09:32;21.20;;;12.70;;
34234;SDS011;20500;49.856;20.290;2023-03-01T14:12:43;19.80;;;12.20;;
34234;SDS011;20500;49.856;20.290;2023-03-01T14:16:00;21.60;;;13.10;;
34234;SDS011;20500;49.856;20.290;2023-03-01T14:19:23;21.10;;;13.30;;
34234;SDS011;20500;49.856;20.290;2023-03-01T14:22:36;20.90;;;12.50;;
34234;SDS011;20500;49.856;20.290;2023-03-01T14:25:47;22.00;;;13.00;;
34234;SDS011;20500;49.856;20.290;2023-03-01T14:28:55;25.10;;;16.60;;
34234;SDS011;20500;49.856;20.290;2023-03-01T14:32:09;23.10;;;13.40;;
34234;SDS011;20500;49.856;20.290;2023-03-01T14:35:24;18.70;;;11.70;;
34234;SDS011;20500;49.856;20.290;2023-03-01T14:38:32;19.60;;;12.10;;
34234;SDS011;20500;49.856;20.290;2023-03-01T14:41:40;21.10;;;11.90;;
34234;SDS011;20500;49.856;20.290;2023-03-01T14:47:52;22.00;;;13.70;;
34234;SDS011;20500;49.856;20.290;2023-03-01T14:50:59;20.20;;;12.20;;
34234;SDS011;20500;49.856;20.290;2023-03-01T14:54:16;21.30;;;13.00;;
34234;SDS011;20500;49.856;20.290;2023-03-01T14:57:28;23.40;;;13.80;;
34234;SDS011;20500;49.856;20.290;2023-03-01T15:00:34;23.40;;;14.40;;
34234;SDS011;20500;49.856;20.290;2023-03-01T15:03:41;22.50;;;14.40;;
34234;SDS011;20500;49.856;20.290;2023-03-01T15:06:51;21.90;;;13.90;;
34234;SDS011;20500;49.856;20.290;2023-03-01T15:09:58;22.30;;;13.70;;
34234;SDS011;20500;49.856;20.290;2023-03-01T15:13:12;23.90;;;14.80;;
34234;SDS011;20500;49.856;20.290;2023-03-01T15:16:25;21.90;;;13.70;;
34234;SDS011;20500;49.856;20.290;2023-03-01T15:19:34;24.10;;;14.70;;
34234;SDS011;20500;49.856;20.290;2023-03-01T15:25:51;23.20;;;13.70;;
34234;SDS011;20500;49.856;20.290;2023-03-01T15:29:00;23.30;;;14.20;;
34234;SDS011;20500;49.856;20.290;2023-03-01T15:32:22;25.70;;;16.00;;
34234;SDS011;20500;49.856;20.290;2023-03-01T15:35:38;23.30;;;15.00;;
34234;SDS011;20500;49.856;20.290;2023-03-01T15:38:52;23.50;;;15.20;;
34234;SDS011;20500;49.856;20.290;2023-03-01T15:41:59;24.30;;;15.90;;
34234;SDS011;20500;49.856;20.290;2023-03-01T15:45:09;26.10;;;15.00;;
34234;SDS011;20500;49.856;20.290;2023-03-01T15:48:24;47.80;;;28.60;;
34234;SDS011;20500;49.856;20.290;2023-03-01T15:51:32;26.50;;;16.30;;
34234;SDS011;20500;49.856;20.290;2023-03-01T15:54:40;27.90;;;15.80;;
34234;SDS011;20500;49.856;20.290;2023-03-01T15:57:47;26.80;;;17.80;;
34234;SDS011;20500;49.856;20.290;2023-03-01T16:00:54;28.40;;;18.30;;
34234;SDS011;20500;49.856;20.290;2023-03-01T16:04:04;27.40;;;17.40;;
34234;SDS011;20500;49.856;20.290;2023-03-01T16:10:15;26.00;;;15.60;;
34234;SDS011;20500;49.856;20.290;2023-03-01T16:13:22;28.60;;;17.20;;
34234;SDS011;20500;49.856;20.290;2023-03-01T16:16:31;29.20;;;17.40;;
34234;SDS011;20500;49.856;20.290;2023-03-01T16:19:38;28.50;;;18.60;;
34234;SDS011;20500;49.856;20.290;2023-03-01T16:22:44;32.40;;;21.00;;
34234;SDS011;20500;49.856;20.290;2023-03-01T16:25:51;34.60;;;23.10;;
34234;SDS011;20500;49.856;20.290;2023-03-01T16:32:03;35.10;;;22.50;;
34234;SDS011;20500;49.856;20.290;2023-03-01T16:35:10;37.30;;;23.20;;
34234;SDS011;20500;49.856;20.290;2023-03-01T16:38:20;43.20;;;26.00;;
34234;SDS011;20500;49.856;20.290;2023-03-01T16:41:26;59.70;;;39.60;;
34234;SDS011;20500;49.856;20.290;2023-03-01T16:44:34;56.40;;;38.00;;
34234;SDS011;20500;49.856;20.290;2023-03-01T16:47:40;61.30;;;41.10;;
34234;SDS011;20500;49.856;20.290;2023-03-01T16:50:46;61.30;;;41.10;;
34234;SDS011;20500;49.856;20.290;2023-03-01T16:54:01;53.70;;;34.70;;
34234;SDS011;20500;49.856;20.290;2023-03-01T17:00:13;49.00;;;32.80;;
34234;SDS011;20500;49.856;20.290;2023-03-01T17:03:21;44.80;;;29.90;;
34234;SDS011;20500;49.856;20.290;2023-03-01T17:06:29;43.40;;;28.60;;
34234;SDS011;20500;49.856;20.290;2023-03-01T17:09:36;34.10;;;23.30;;
34234;SDS011;20500;49.856;20.290;2023-03-01T17:12:42;32.40;;;21.10;;
34234;SDS011;20500;49.856;20.290;2023-03-01T17:15:51;31.30;;;19.60;;
34234;SDS011;20500;49.856;20.290;2023-03-01T17:18:57;38.30;;;24.40;;
34234;SDS011;20500;49.856;20.290;2023-03-01T17:22:04;42.20;;;28.30;;
34234;SDS011;20500;49.856;20.290;2023-03-01T17:28:15;41.20;;;26.90;;
34234;SDS011;20500;49.856;20.290;2023-03-01T17:31:22;39.50;;;25.60;;
34234;SDS011;20500;49.856;20.290;2023-03-01T17:34:29;37.60;;;24.80;;
34234;SDS011;20500;49.856;20.290;2023-03-01T17:37:36;39.40;;;24.80;;
34234;SDS011;20500;49.856;20.290;2023-03-01T17:40:48;38.20;;;24.60;;
34234;SDS011;20500;49.856;20.290;2023-03-01T17:43:54;40.60;;;26.20;;
34234;SDS011;20500;49.856;20.290;2023-03-01T17:50:06;45.70;;;30.00;;
34234;SDS011;20500;49.856;20.290;2023-03-01T17:53:14;45.00;;;30.20;;
34234;SDS011;20500;49.856;20.290;2023-03-01T17:56:21;49.50;;;31.30;;
34234;SDS011;20500;49.856;20.290;2023-03-01T17:59:27;48.10;;;30.30;;
34234;SDS011;20500;49.856;20.290;2023-03-01T18:02:35;47.30;;;28.90;;
34234;SDS011;20500;49.856;20.290;2023-03-01T18:08:46;55.60;;;34.80;;
34234;SDS011;20500;49.856;20.290;2023-03-01T18:11:54;61.60;;;37.50;;
34234;SDS011;20500;49.856;20.290;2023-03-01T18:15:00;62.60;;;41.60;;
34234;SDS011;20500;49.856;20.290;2023-03-01T18:18:07;67.90;;;41.20;;
34234;SDS011;20500;49.856;20.290;2023-03-01T18:21:13;68.80;;;42.40;;
34234;SDS011;20500;49.856;20.290;2023-03-01T18:24:20;87.70;;;52.80;;
34234;SDS011;20500;49.856;20.290;2023-03-01T18:27:26;110.60;;;63.00;;
34234;SDS011;20500;49.856;20.290;2023-03-01T18:30:32;108.90;;;65.10;;
34234;SDS011;20500;49.856;20.290;2023-03-01T18:33:40;107.20;;;63.50;;
34234;SDS011;20500;49.856;20.290;2023-03-01T18:36:47;85.80;;;50.00;;
34234;SDS011;20500;49.856;20.290;2023-03-01T18:40:12;79.90;;;47.40;;
34234;SDS011;20500;49.856;20.290;2023-03-01T18:43:18;76.70;;;47.50;;
34234;SDS011;20500;49.856;20.290;2023-03-01T18:46:26;72.00;;;43.10;;
34234;SDS011;20500;49.856;20.290;2023-03-01T18:49:32;62.30;;;40.10;;
34234;SDS011;20500;49.856;20.290;2023-03-01T18:52:39;54.20;;;35.20;;
34234;SDS011;20500;49.856;20.290;2023-03-01T18:55:45;51.70;;;32.20;;
34234;SDS011;20500;49.856;20.290;2023-03-01T19:01:56;54.60;;;33.80;;
34234;SDS011;20500;49.856;20.290;2023-03-01T19:08:07;49.00;;;31.50;;
34234;SDS011;20500;49.856;20.290;2023-03-01T19:11:14;47.10;;;30.90;;
34234;SDS011;20500;49.856;20.290;2023-03-01T19:14:20;47.60;;;30.30;;
34234;SDS011;20500;49.856;20.290;2023-03-01T19:17:26;50.80;;;31.70;;
34234;SDS011;20500;49.856;20.290;2023-03-01T19:20:34;53.70;;;33.30;;
34234;SDS011;20500;49.856;20.290;2023-03-01T19:23:42;51.40;;;32.00;;
34234;SDS011;20500;49.856;20.290;2023-03-01T19:26:49;54.60;;;33.10;;
34234;SDS011;20500;49.856;20.290;2023-03-01T19:29:57;48.30;;;30.80;;
34234;SDS011;20500;49.856;20.290;2023-03-01T19:36:08;53.00;;;31.10;;
34234;SDS011;20500;49.856;20.290;2023-03-01T19:39:15;52.50;;;32.80;;
34234;SDS011;20500;49.856;20.290;2023-03-01T19:42:22;52.00;;;32.90;;
34234;SDS011;20500;49.856;20.290;2023-03-01T19:45:29;53.10;;;34.00;;
34234;SDS011;20500;49.856;20.290;2023-03-01T19:48:36;53.90;;;33.90;;
34234;SDS011;20500;49.856;20.290;2023-03-01T19:51:42;51.80;;;32.00;;
34234;SDS011;20500;49.856;20.290;2023-03-01T19:57:57;52.20;;;33.40;;
34234;SDS011;20500;49.856;20.290;2023-03-01T20:01:04;55.80;;;36.10;;
34234;SDS011;20500;49.856;20.290;2023-03-01T20:04:16;55.80;;;36.50;;
34234;SDS011;20500;49.856;20.290;2023-03-01T20:07:23;55.40;;;35.60;;
34234;SDS011;20500;49.856;20.290;2023-03-01T20:13:34;60.70;;;35.50;;
34234;SDS011;20500;49.856;20.290;2023-03-01T20:16:41;57.50;;;35.60;;
34234;SDS011;20500;49.856;20.290;2023-03-01T20:22:52;58.60;;;36.70;;
34234;SDS011;20500;49.856;20.290;2023-03-01T20:26:02;57.10;;;35.90;;
34234;SDS011;20500;49.856;20.290;2023-03-01T20:29:10;53.60;;;35.50;;
34234;SDS011;20500;49.856;20.290;2023-03-01T20:32:17;56.80;;;36.40;;
34234;SDS011;20500;49.856;20.290;2023-03-01T20:38:28;83.40;;;46.80;;
34234;SDS011;20500;49.856;20.290;2023-03-01T20:41:34;81.40;;;49.20;;
34234;SDS011;20500;49.856;20.290;2023-03-01T20:47:46;79.10;;;48.40;;
34234;SDS011;20500;49.856;20.290;2023-03-01T20:50:53;72.60;;;44.40;;
34234;SDS011;20500;49.856;20.290;2023-03-01T20:54:03;71.80;;;45.20;;
34234;SDS011;20500;49.856;20.290;2023-03-01T21:03:22;61.90;;;39.10;;
34234;SDS011;20500;49.856;20.290;2023-03-01T21:06:29;64.80;;;38.90;;
34234;SDS011;20500;49.856;20.290;2023-03-01T21:09:36;67.70;;;41.50;;
34234;SDS011;20500;49.856;20.290;2023-03-01T21:12:43;63.70;;;38.60;;
34234;SDS011;20500;49.856;20.290;2023-03-01T21:15:53;62.30;;;36.60;;
34234;SDS011;20500;49.856;20.290;2023-03-01T21:19:01;60.20;;;37.60;;
34234;SDS011;20500;49.856;20.290;2023-03-01T21:22:08;65.60;;;39.40;;
34234;SDS011;20500;49.856;20.290;2023-03-01T21:25:15;70.70;;;42.90;;